SWA2645 KEUG-KLAS
Flight info
| Callsign | SWA2645 |
|---|---|
| Flight time | 1h 34m |
| Altitude | 41000 |
| Route | CHEEZ LMT YERIN TQILA COKTL4 |
| Aircraft | B738/M-SADE2E3GIJ4RWZ/LB1D1 |
Departure
| Time | 2026-05-05 18:24 |
|---|---|
| Airport | Eugene Airport (KEUG) |
Arrival
| Time | 2026-05-05 19:59 |
|---|---|
| Airport | Harry Reid International Airport (KLAS) |
| Time | Latitude | Longitude | Altitude | Speed | Heading |
|---|---|---|---|---|---|
| 2026-05-05 18:03 | 44.11921 | -123.21433 | 372 ft | 0 kts | 59° |
| 2026-05-05 18:17 | 44.11918 | -123.21439 | 372 ft | 2 kts | 59° |
| 2026-05-05 18:17 | 44.11910 | -123.21457 | 372 ft | 2 kts | 59° |
| 2026-05-05 18:18 | 44.11902 | -123.21474 | 372 ft | 2 kts | 59° |
| 2026-05-05 18:18 | 44.11895 | -123.21493 | 372 ft | 2 kts | 59° |
| 2026-05-05 18:18 | 44.11887 | -123.21510 | 372 ft | 2 kts | 59° |
| 2026-05-05 18:18 | 44.11880 | -123.21527 | 372 ft | 0 kts | 59° |
| 2026-05-05 18:19 | 44.11879 | -123.21528 | 372 ft | 0 kts | 59° |
| 2026-05-05 18:20 | 44.11886 | -123.21521 | 372 ft | 3 kts | 18° |
| 2026-05-05 18:20 | 44.11909 | -123.21567 | 372 ft | 8 kts | 296° |
| 2026-05-05 18:21 | 44.11951 | -123.21635 | 371 ft | 8 kts | 285° |
| 2026-05-05 18:21 | 44.11975 | -123.21697 | 371 ft | 8 kts | 341° |
| 2026-05-05 18:21 | 44.12075 | -123.21705 | 370 ft | 19 kts | 359° |
| 2026-05-05 18:21 | 44.12240 | -123.21707 | 370 ft | 26 kts | 359° |
| 2026-05-05 18:22 | 44.12453 | -123.21711 | 368 ft | 36 kts | 360° |
| 2026-05-05 18:22 | 44.12719 | -123.21715 | 366 ft | 39 kts | 360° |
| 2026-05-05 18:22 | 44.12991 | -123.21719 | 364 ft | 38 kts | 359° |
| 2026-05-05 18:22 | 44.13228 | -123.21722 | 362 ft | 30 kts | 360° |
| 2026-05-05 18:23 | 44.13419 | -123.21725 | 360 ft | 23 kts | 359° |
| 2026-05-05 18:23 | 44.13522 | -123.21739 | 360 ft | 10 kts | 317° |
| 2026-05-05 18:23 | 44.13535 | -123.21869 | 360 ft | 16 kts | 266° |
| 2026-05-05 18:23 | 44.13452 | -123.21917 | 360 ft | 15 kts | 178° |
| 2026-05-05 18:24 | 44.13176 | -123.21911 | 363 ft | 74 kts | 179° |
| 2026-05-05 18:24 | 44.12427 | -123.21899 | 369 ft | 137 kts | 179° |
| 2026-05-05 18:24 | 44.11315 | -123.21881 | 498 ft | 174 kts | 179° |
| 2026-05-05 18:24 | 44.10186 | -123.21867 | 1360 ft | 162 kts | 179° |
| 2026-05-05 18:25 | 44.09041 | -123.21690 | 1765 ft | 174 kts | 161° |
| 2026-05-05 18:25 | 44.08303 | -123.21184 | 2046 ft | 180 kts | 147° |
| 2026-05-05 18:25 | 44.06843 | -123.19898 | 2609 ft | 195 kts | 147° |
| 2026-05-05 18:25 | 44.05698 | -123.18838 | 3056 ft | 204 kts | 145° |
| 2026-05-05 18:26 | 44.04460 | -123.17669 | 3328 ft | 227 kts | 145° |
| 2026-05-05 18:26 | 44.03090 | -123.16398 | 3727 ft | 245 kts | 146° |
| 2026-05-05 18:26 | 44.01657 | -123.15103 | 4286 ft | 255 kts | 146° |
| 2026-05-05 18:26 | 44.00115 | -123.13717 | 4708 ft | 272 kts | 147° |
| 2026-05-05 18:27 | 43.98483 | -123.12383 | 5452 ft | 275 kts | 149° |
| 2026-05-05 18:27 | 43.96813 | -123.11071 | 6107 ft | 282 kts | 149° |
| 2026-05-05 18:27 | 43.95122 | -123.09731 | 6918 ft | 282 kts | 149° |
| 2026-05-05 18:27 | 43.93427 | -123.08365 | 7683 ft | 285 kts | 148° |
| 2026-05-05 18:28 | 43.90009 | -123.05553 | 9285 ft | 288 kts | 148° |
| 2026-05-05 18:28 | 43.88280 | -123.04114 | 10056 ft | 291 kts | 148° |
| 2026-05-05 18:28 | 43.86522 | -123.02653 | 10658 ft | 303 kts | 147° |
| 2026-05-05 18:29 | 43.84662 | -123.01118 | 11044 ft | 321 kts | 148° |
| 2026-05-05 18:29 | 43.82704 | -122.99518 | 11488 ft | 338 kts | 148° |
| 2026-05-05 18:29 | 43.80626 | -122.97815 | 11936 ft | 355 kts | 147° |
| 2026-05-05 18:29 | 43.78453 | -122.96032 | 12385 ft | 371 kts | 147° |
| 2026-05-05 18:30 | 43.76216 | -122.94195 | 13158 ft | 376 kts | 147° |
| 2026-05-05 18:30 | 43.73973 | -122.92389 | 13978 ft | 382 kts | 148° |
| 2026-05-05 18:30 | 43.71641 | -122.90567 | 14715 ft | 388 kts | 148° |
| 2026-05-05 18:30 | 43.69268 | -122.88738 | 15469 ft | 393 kts | 148° |
| 2026-05-05 18:31 | 43.66876 | -122.86902 | 16221 ft | 398 kts | 148° |
| 2026-05-05 18:31 | 43.64444 | -122.85033 | 16957 ft | 403 kts | 147° |
| 2026-05-05 18:31 | 43.61988 | -122.83144 | 17662 ft | 408 kts | 147° |
| 2026-05-05 18:31 | 43.59535 | -122.81252 | 18359 ft | 412 kts | 147° |
| 2026-05-05 18:32 | 43.57025 | -122.79314 | 19026 ft | 417 kts | 147° |
| 2026-05-05 18:32 | 43.54487 | -122.77354 | 19744 ft | 421 kts | 147° |
| 2026-05-05 18:32 | 43.51929 | -122.75382 | 20431 ft | 426 kts | 147° |
| 2026-05-05 18:32 | 43.49337 | -122.73387 | 21049 ft | 431 kts | 147° |
| 2026-05-05 18:33 | 43.46708 | -122.71365 | 21726 ft | 434 kts | 147° |
| 2026-05-05 18:33 | 43.44057 | -122.69329 | 22366 ft | 438 kts | 147° |
| 2026-05-05 18:33 | 43.41408 | -122.67297 | 22971 ft | 443 kts | 147° |
| 2026-05-05 18:33 | 43.38705 | -122.65224 | 23576 ft | 447 kts | 147° |
| 2026-05-05 18:34 | 43.35992 | -122.63145 | 24140 ft | 452 kts | 147° |
| 2026-05-05 18:34 | 43.33234 | -122.61034 | 24736 ft | 456 kts | 147° |
| 2026-05-05 18:34 | 43.30450 | -122.58904 | 25332 ft | 460 kts | 147° |
| 2026-05-05 18:34 | 43.27631 | -122.56751 | 25881 ft | 465 kts | 147° |
| 2026-05-05 18:35 | 43.24806 | -122.54597 | 26513 ft | 467 kts | 147° |
| 2026-05-05 18:35 | 43.21989 | -122.52450 | 27058 ft | 471 kts | 147° |
| 2026-05-05 18:35 | 43.19078 | -122.50234 | 27604 ft | 476 kts | 147° |
| 2026-05-05 18:35 | 43.16197 | -122.48043 | 28137 ft | 479 kts | 147° |
| 2026-05-05 18:36 | 43.13284 | -122.45830 | 28620 ft | 484 kts | 147° |
| 2026-05-05 18:36 | 43.10300 | -122.43565 | 29166 ft | 488 kts | 147° |
| 2026-05-05 18:36 | 43.07339 | -122.41321 | 29711 ft | 490 kts | 147° |
| 2026-05-05 18:36 | 43.04391 | -122.39092 | 30504 ft | 486 kts | 147° |
| 2026-05-05 18:37 | 43.01428 | -122.36854 | 31223 ft | 484 kts | 147° |
| 2026-05-05 18:37 | 42.98488 | -122.34634 | 31736 ft | 486 kts | 147° |
| 2026-05-05 18:37 | 42.95544 | -122.32416 | 32340 ft | 485 kts | 147° |
| 2026-05-05 18:37 | 42.92619 | -122.30212 | 32946 ft | 483 kts | 147° |
| 2026-05-05 18:38 | 42.89671 | -122.27994 | 33541 ft | 482 kts | 146° |
| 2026-05-05 18:38 | 42.86744 | -122.25794 | 34135 ft | 480 kts | 146° |
| 2026-05-05 18:38 | 42.83817 | -122.23594 | 34754 ft | 478 kts | 146° |
| 2026-05-05 18:38 | 42.80919 | -122.21417 | 35359 ft | 476 kts | 146° |
| 2026-05-05 18:39 | 42.78044 | -122.19263 | 35950 ft | 474 kts | 146° |
| 2026-05-05 18:39 | 42.75144 | -122.17094 | 36499 ft | 473 kts | 146° |
| 2026-05-05 18:39 | 42.72228 | -122.14916 | 37018 ft | 471 kts | 145° |
| 2026-05-05 18:39 | 42.69351 | -122.12768 | 37400 ft | 473 kts | 145° |
| 2026-05-05 18:40 | 42.66473 | -122.10619 | 37752 ft | 473 kts | 145° |
| 2026-05-05 18:40 | 42.63586 | -122.08464 | 38106 ft | 474 kts | 145° |
| 2026-05-05 18:40 | 42.60687 | -122.06300 | 38460 ft | 473 kts | 145° |
| 2026-05-05 18:40 | 42.57797 | -122.04146 | 38818 ft | 471 kts | 145° |
| 2026-05-05 18:41 | 42.54913 | -122.02000 | 39078 ft | 472 kts | 145° |
| 2026-05-05 18:41 | 42.52050 | -121.99871 | 39095 ft | 474 kts | 145° |
| 2026-05-05 18:41 | 42.46305 | -121.95613 | 39090 ft | 469 kts | 145° |
| 2026-05-05 18:42 | 42.40580 | -121.91379 | 39083 ft | 470 kts | 144° |
| 2026-05-05 18:42 | 42.34811 | -121.87122 | 39075 ft | 469 kts | 144° |
| 2026-05-05 18:43 | 42.29079 | -121.82896 | 39063 ft | 468 kts | 144° |
| 2026-05-05 18:43 | 42.23367 | -121.78696 | 39058 ft | 470 kts | 144° |
| 2026-05-05 18:44 | 42.17598 | -121.74468 | 39053 ft | 469 kts | 144° |
| 2026-05-05 18:44 | 42.12022 | -121.70057 | 39054 ft | 465 kts | 140° |
| 2026-05-05 18:45 | 42.06688 | -121.65149 | 39044 ft | 464 kts | 137° |
| 2026-05-05 18:45 | 42.01423 | -121.60153 | 39046 ft | 463 kts | 137° |
| 2026-05-05 18:46 | 41.96128 | -121.55194 | 39051 ft | 463 kts | 138° |
| 2026-05-05 18:46 | 41.90836 | -121.50305 | 39055 ft | 464 kts | 138° |
| 2026-05-05 18:47 | 41.85523 | -121.45432 | 39060 ft | 462 kts | 138° |
| 2026-05-05 18:47 | 41.80189 | -121.40559 | 39065 ft | 462 kts | 137° |
| 2026-05-05 18:48 | 41.74881 | -121.35721 | 39067 ft | 463 kts | 137° |
| 2026-05-05 18:48 | 41.69534 | -121.30854 | 39061 ft | 463 kts | 138° |
| 2026-05-05 18:49 | 41.64206 | -121.26018 | 39065 ft | 464 kts | 138° |
| 2026-05-05 18:49 | 41.58900 | -121.21214 | 39060 ft | 463 kts | 138° |
| 2026-05-05 18:50 | 41.53552 | -121.16383 | 39052 ft | 463 kts | 138° |
| 2026-05-05 18:50 | 41.48216 | -121.11569 | 39053 ft | 463 kts | 138° |
| 2026-05-05 18:51 | 41.42861 | -121.06756 | 39062 ft | 464 kts | 138° |
| 2026-05-05 18:51 | 41.37504 | -121.01948 | 39058 ft | 464 kts | 138° |
| 2026-05-05 18:52 | 41.32165 | -120.97162 | 39056 ft | 463 kts | 138° |
| 2026-05-05 18:52 | 41.26817 | -120.92378 | 39060 ft | 463 kts | 137° |
| 2026-05-05 18:53 | 41.21483 | -120.87615 | 39052 ft | 462 kts | 137° |
| 2026-05-05 18:53 | 41.16148 | -120.82863 | 39049 ft | 461 kts | 137° |
| 2026-05-05 18:54 | 41.10854 | -120.78157 | 39056 ft | 462 kts | 137° |
| 2026-05-05 18:54 | 41.05493 | -120.73394 | 39048 ft | 463 kts | 137° |
| 2026-05-05 18:55 | 41.00158 | -120.68669 | 39049 ft | 462 kts | 137° |
| 2026-05-05 18:55 | 40.94792 | -120.63934 | 39056 ft | 462 kts | 137° |
| 2026-05-05 18:56 | 40.89461 | -120.59238 | 39057 ft | 461 kts | 137° |
| 2026-05-05 18:56 | 40.84141 | -120.54554 | 39046 ft | 461 kts | 137° |
| 2026-05-05 18:57 | 40.78785 | -120.49843 | 39051 ft | 463 kts | 137° |
| 2026-05-05 18:57 | 40.73409 | -120.45130 | 39053 ft | 462 kts | 137° |
| 2026-05-05 18:58 | 40.68063 | -120.40447 | 39052 ft | 461 kts | 137° |
| 2026-05-05 18:58 | 40.62679 | -120.35744 | 39042 ft | 462 kts | 137° |
| 2026-05-05 18:59 | 40.57348 | -120.31095 | 39040 ft | 463 kts | 137° |
| 2026-05-05 18:59 | 40.51972 | -120.26421 | 39037 ft | 462 kts | 137° |
| 2026-05-05 19:00 | 40.46612 | -120.21768 | 39027 ft | 463 kts | 137° |
| 2026-05-05 19:00 | 40.41209 | -120.17091 | 39027 ft | 463 kts | 137° |
| 2026-05-05 19:01 | 40.35870 | -120.12474 | 39023 ft | 463 kts | 137° |
| 2026-05-05 19:01 | 40.30483 | -120.07828 | 39022 ft | 462 kts | 137° |
| 2026-05-05 19:02 | 40.25129 | -120.03211 | 39025 ft | 460 kts | 137° |
| 2026-05-05 19:02 | 40.19777 | -119.98610 | 39027 ft | 461 kts | 137° |
| 2026-05-05 19:03 | 40.14371 | -119.93971 | 39037 ft | 463 kts | 137° |
| 2026-05-05 19:03 | 40.08995 | -119.89368 | 39039 ft | 461 kts | 137° |
| 2026-05-05 19:04 | 40.03631 | -119.84789 | 39033 ft | 459 kts | 137° |
| 2026-05-05 19:04 | 39.98298 | -119.80238 | 39043 ft | 460 kts | 137° |
| 2026-05-05 19:05 | 39.92926 | -119.75658 | 39041 ft | 462 kts | 137° |
| 2026-05-05 19:05 | 39.87545 | -119.71081 | 39024 ft | 460 kts | 137° |
| 2026-05-05 19:06 | 39.82198 | -119.66546 | 39012 ft | 463 kts | 138° |
| 2026-05-05 19:06 | 39.76803 | -119.61978 | 39038 ft | 463 kts | 138° |
| 2026-05-05 19:07 | 39.71414 | -119.57432 | 39023 ft | 458 kts | 138° |
| 2026-05-05 19:07 | 39.66060 | -119.52911 | 39025 ft | 463 kts | 137° |
| 2026-05-05 19:08 | 39.60660 | -119.48357 | 39023 ft | 460 kts | 138° |
| 2026-05-05 19:08 | 39.55288 | -119.43849 | 39020 ft | 460 kts | 138° |
| 2026-05-05 19:09 | 39.49934 | -119.39358 | 39021 ft | 461 kts | 138° |
| 2026-05-05 19:09 | 39.44543 | -119.34838 | 39023 ft | 462 kts | 139° |
| 2026-05-05 19:10 | 39.39141 | -119.30330 | 39022 ft | 462 kts | 139° |
| 2026-05-05 19:10 | 39.33772 | -119.25856 | 39001 ft | 461 kts | 139° |
| 2026-05-05 19:11 | 39.28383 | -119.21375 | 39004 ft | 462 kts | 139° |
| 2026-05-05 19:11 | 39.22968 | -119.16871 | 39016 ft | 463 kts | 139° |
| 2026-05-05 19:12 | 39.17575 | -119.12399 | 38996 ft | 463 kts | 139° |
| 2026-05-05 19:12 | 39.12161 | -119.07912 | 39010 ft | 464 kts | 139° |
| 2026-05-05 19:13 | 39.06685 | -119.03379 | 38993 ft | 462 kts | 139° |
| 2026-05-05 19:13 | 39.01301 | -118.98949 | 38977 ft | 462 kts | 139° |
| 2026-05-05 19:14 | 38.96160 | -118.94080 | 38973 ft | 455 kts | 131° |
| 2026-05-05 19:14 | 38.91510 | -118.88685 | 39005 ft | 450 kts | 128° |
| 2026-05-05 19:15 | 38.86951 | -118.83114 | 38992 ft | 452 kts | 128° |
| 2026-05-05 19:15 | 38.82433 | -118.77603 | 39010 ft | 448 kts | 128° |
| 2026-05-05 19:16 | 38.77899 | -118.72118 | 38996 ft | 451 kts | 129° |
| 2026-05-05 19:16 | 38.73319 | -118.66605 | 39017 ft | 453 kts | 129° |
| 2026-05-05 19:17 | 38.68726 | -118.61132 | 39001 ft | 449 kts | 129° |
| 2026-05-05 19:17 | 38.64156 | -118.55690 | 39006 ft | 452 kts | 129° |
| 2026-05-05 19:18 | 38.59542 | -118.50218 | 39012 ft | 452 kts | 130° |
| 2026-05-05 19:18 | 38.54930 | -118.44746 | 39015 ft | 453 kts | 130° |
| 2026-05-05 19:19 | 38.50346 | -118.39318 | 39006 ft | 451 kts | 130° |
| 2026-05-05 19:19 | 38.45764 | -118.33908 | 39004 ft | 451 kts | 131° |
| 2026-05-05 19:20 | 38.41160 | -118.28462 | 38997 ft | 451 kts | 131° |
| 2026-05-05 19:20 | 38.36563 | -118.23042 | 38995 ft | 454 kts | 131° |
| 2026-05-05 19:21 | 38.31934 | -118.17593 | 38992 ft | 450 kts | 131° |
| 2026-05-05 19:21 | 38.27349 | -118.12217 | 39003 ft | 451 kts | 131° |
| 2026-05-05 19:22 | 38.22754 | -118.06833 | 38999 ft | 451 kts | 131° |
| 2026-05-05 19:22 | 38.18131 | -118.01417 | 38999 ft | 452 kts | 131° |
| 2026-05-05 19:23 | 38.13497 | -117.95999 | 38995 ft | 453 kts | 131° |
| 2026-05-05 19:23 | 38.08888 | -117.90635 | 38997 ft | 453 kts | 131° |
| 2026-05-05 19:24 | 38.04250 | -117.85242 | 38992 ft | 450 kts | 132° |
| 2026-05-05 19:24 | 37.99627 | -117.79889 | 38989 ft | 453 kts | 133° |
| 2026-05-05 19:25 | 37.94970 | -117.74503 | 39002 ft | 454 kts | 133° |
| 2026-05-05 19:25 | 37.90312 | -117.69111 | 39001 ft | 454 kts | 133° |
| 2026-05-05 19:26 | 37.85676 | -117.63738 | 38996 ft | 455 kts | 132° |
| 2026-05-05 19:26 | 37.81011 | -117.58363 | 38979 ft | 454 kts | 133° |
| 2026-05-05 19:27 | 37.76355 | -117.53000 | 38991 ft | 454 kts | 133° |
| 2026-05-05 19:27 | 37.71658 | -117.47606 | 38979 ft | 456 kts | 133° |
| 2026-05-05 19:28 | 37.66967 | -117.42231 | 38984 ft | 456 kts | 133° |
| 2026-05-05 19:28 | 37.62277 | -117.36868 | 38996 ft | 457 kts | 134° |
| 2026-05-05 19:29 | 37.57598 | -117.31514 | 38994 ft | 457 kts | 134° |
| 2026-05-05 19:29 | 37.52867 | -117.26115 | 38996 ft | 457 kts | 135° |
| 2026-05-05 19:30 | 37.48150 | -117.20757 | 38990 ft | 457 kts | 136° |
| 2026-05-05 19:30 | 37.43132 | -117.15859 | 38984 ft | 461 kts | 142° |
| 2026-05-05 19:31 | 37.37823 | -117.11337 | 38983 ft | 463 kts | 143° |
| 2026-05-05 19:31 | 37.32444 | -117.06805 | 38981 ft | 463 kts | 143° |
| 2026-05-05 19:32 | 37.27144 | -117.02293 | 38985 ft | 463 kts | 143° |
| 2026-05-05 19:32 | 37.21818 | -116.97716 | 38983 ft | 462 kts | 143° |
| 2026-05-05 19:33 | 37.16566 | -116.93185 | 38982 ft | 458 kts | 144° |
| 2026-05-05 19:33 | 37.11316 | -116.88636 | 38981 ft | 461 kts | 144° |
| 2026-05-05 19:34 | 37.06020 | -116.84074 | 38982 ft | 463 kts | 144° |
| 2026-05-05 19:35 | 36.98088 | -116.77261 | 38974 ft | 462 kts | 144° |
| 2026-05-05 19:35 | 36.92793 | -116.72726 | 38843 ft | 460 kts | 144° |
| 2026-05-05 19:35 | 36.90146 | -116.70463 | 38117 ft | 463 kts | 144° |
| 2026-05-05 19:36 | 36.87510 | -116.68206 | 37635 ft | 460 kts | 143° |
| 2026-05-05 19:36 | 36.84866 | -116.65948 | 37153 ft | 458 kts | 143° |
| 2026-05-05 19:36 | 36.82265 | -116.63730 | 36556 ft | 459 kts | 142° |
| 2026-05-05 19:36 | 36.79632 | -116.61485 | 35888 ft | 461 kts | 142° |
| 2026-05-05 19:37 | 36.76979 | -116.59223 | 35115 ft | 465 kts | 140° |
| 2026-05-05 19:37 | 36.74331 | -116.56963 | 34332 ft | 469 kts | 140° |
| 2026-05-05 19:37 | 36.71643 | -116.54666 | 33528 ft | 472 kts | 139° |
| 2026-05-05 19:37 | 36.68949 | -116.52307 | 32721 ft | 475 kts | 139° |
| 2026-05-05 19:38 | 36.66350 | -116.49812 | 31914 ft | 476 kts | 135° |
| 2026-05-05 19:38 | 36.63896 | -116.47092 | 31138 ft | 473 kts | 130° |
| 2026-05-05 19:38 | 36.61616 | -116.44229 | 30357 ft | 458 kts | 127° |
| 2026-05-05 19:38 | 36.59473 | -116.41335 | 29586 ft | 444 kts | 127° |
| 2026-05-05 19:39 | 36.57443 | -116.38500 | 28656 ft | 433 kts | 126° |
| 2026-05-05 19:39 | 36.55487 | -116.35720 | 27976 ft | 430 kts | 126° |
| 2026-05-05 19:39 | 36.53535 | -116.32922 | 27302 ft | 428 kts | 127° |
| 2026-05-05 19:39 | 36.51591 | -116.30136 | 26635 ft | 427 kts | 128° |
| 2026-05-05 19:40 | 36.49640 | -116.27352 | 25963 ft | 425 kts | 128° |
| 2026-05-05 19:40 | 36.47712 | -116.24608 | 25306 ft | 423 kts | 128° |
| 2026-05-05 19:40 | 36.45803 | -116.21900 | 24757 ft | 417 kts | 129° |
| 2026-05-05 19:40 | 36.43903 | -116.19218 | 24469 ft | 406 kts | 129° |
| 2026-05-05 19:41 | 36.42061 | -116.16625 | 23867 ft | 404 kts | 130° |
| 2026-05-05 19:41 | 36.40208 | -116.14017 | 23206 ft | 402 kts | 130° |
| 2026-05-05 19:41 | 36.38366 | -116.11428 | 22596 ft | 399 kts | 129° |
| 2026-05-05 19:41 | 36.36543 | -116.08870 | 22008 ft | 396 kts | 129° |
| 2026-05-05 19:42 | 36.34722 | -116.06323 | 21410 ft | 393 kts | 129° |
| 2026-05-05 19:42 | 36.32938 | -116.03831 | 20837 ft | 389 kts | 129° |
| 2026-05-05 19:42 | 36.31144 | -116.01321 | 20249 ft | 386 kts | 130° |
| 2026-05-05 19:42 | 36.29364 | -115.98831 | 19664 ft | 383 kts | 129° |
| 2026-05-05 19:43 | 36.27638 | -115.96420 | 19255 ft | 376 kts | 129° |
| 2026-05-05 19:43 | 36.25928 | -115.94038 | 19068 ft | 363 kts | 129° |
| 2026-05-05 19:43 | 36.24292 | -115.91715 | 18940 ft | 349 kts | 128° |
| 2026-05-05 19:43 | 36.22796 | -115.89420 | 18739 ft | 338 kts | 126° |
| 2026-05-05 19:44 | 36.21376 | -115.87123 | 18298 ft | 335 kts | 125° |
| 2026-05-05 19:44 | 36.19977 | -115.84832 | 17872 ft | 333 kts | 125° |
| 2026-05-05 19:44 | 36.18583 | -115.82568 | 17473 ft | 329 kts | 125° |
| 2026-05-05 19:44 | 36.17194 | -115.80344 | 17065 ft | 326 kts | 126° |
| 2026-05-05 19:45 | 36.15801 | -115.78140 | 16643 ft | 324 kts | 127° |
| 2026-05-05 19:45 | 36.14317 | -115.76090 | 16223 ft | 323 kts | 135° |
| 2026-05-05 19:45 | 36.12482 | -115.74503 | 15808 ft | 323 kts | 153° |
| 2026-05-05 19:45 | 36.10401 | -115.73515 | 15392 ft | 321 kts | 160° |
| 2026-05-05 19:46 | 36.08260 | -115.72692 | 14971 ft | 319 kts | 161° |
| 2026-05-05 19:46 | 36.06174 | -115.71912 | 14566 ft | 316 kts | 161° |
| 2026-05-05 19:46 | 36.04086 | -115.71110 | 14153 ft | 313 kts | 161° |
| 2026-05-05 19:46 | 36.01987 | -115.70280 | 13736 ft | 311 kts | 160° |
| 2026-05-05 19:47 | 35.99954 | -115.69460 | 13331 ft | 309 kts | 160° |
| 2026-05-05 19:47 | 35.97908 | -115.68629 | 12927 ft | 307 kts | 160° |
| 2026-05-05 19:47 | 35.95896 | -115.67810 | 12524 ft | 305 kts | 160° |
| 2026-05-05 19:47 | 35.93880 | -115.66992 | 12126 ft | 303 kts | 161° |
| 2026-05-05 19:48 | 35.91914 | -115.66195 | 11991 ft | 295 kts | 160° |
| 2026-05-05 19:48 | 35.89975 | -115.65405 | 11851 ft | 289 kts | 160° |
| 2026-05-05 19:48 | 35.88062 | -115.64625 | 11528 ft | 294 kts | 160° |
| 2026-05-05 19:48 | 35.86091 | -115.63822 | 11126 ft | 295 kts | 160° |
| 2026-05-05 19:49 | 35.84163 | -115.62990 | 10742 ft | 292 kts | 156° |
| 2026-05-05 19:49 | 35.82426 | -115.61746 | 10355 ft | 288 kts | 137° |
| 2026-05-05 19:49 | 35.81096 | -115.59957 | 10017 ft | 284 kts | 127° |
| 2026-05-05 19:49 | 35.79921 | -115.58040 | 9888 ft | 272 kts | 126° |
| 2026-05-05 19:50 | 35.78804 | -115.56205 | 9614 ft | 268 kts | 127° |
| 2026-05-05 19:50 | 35.77672 | -115.54417 | 9494 ft | 258 kts | 128° |
| 2026-05-05 19:50 | 35.76584 | -115.52740 | 9419 ft | 246 kts | 127° |
| 2026-05-05 19:50 | 35.75685 | -115.50980 | 9300 ft | 238 kts | 113° |
| 2026-05-05 19:51 | 35.75357 | -115.49000 | 9023 ft | 239 kts | 92° |
| 2026-05-05 19:51 | 35.75382 | -115.46967 | 8748 ft | 238 kts | 90° |
| 2026-05-05 19:51 | 35.75406 | -115.44947 | 8501 ft | 235 kts | 91° |
| 2026-05-05 19:51 | 35.75389 | -115.42933 | 8231 ft | 234 kts | 90° |
| 2026-05-05 19:52 | 35.75587 | -115.40973 | 8009 ft | 234 kts | 71° |
| 2026-05-05 19:52 | 35.76492 | -115.39297 | 8031 ft | 240 kts | 44° |
| 2026-05-05 19:52 | 35.77781 | -115.37963 | 8015 ft | 242 kts | 39° |
| 2026-05-05 19:52 | 35.79097 | -115.36659 | 8018 ft | 243 kts | 40° |
| 2026-05-05 19:53 | 35.80388 | -115.35305 | 8005 ft | 243 kts | 41° |
| 2026-05-05 19:53 | 35.81657 | -115.33927 | 7981 ft | 244 kts | 42° |
| 2026-05-05 19:53 | 35.82942 | -115.32526 | 7829 ft | 248 kts | 42° |
| 2026-05-05 19:53 | 35.84236 | -115.31123 | 7506 ft | 249 kts | 42° |
| 2026-05-05 19:54 | 35.85549 | -115.29747 | 7214 ft | 248 kts | 37° |
| 2026-05-05 19:54 | 35.87021 | -115.28648 | 6938 ft | 244 kts | 26° |
| 2026-05-05 19:54 | 35.88533 | -115.27810 | 6691 ft | 237 kts | 24° |
| 2026-05-05 19:54 | 35.90031 | -115.26994 | 6435 ft | 231 kts | 25° |
| 2026-05-05 19:55 | 35.91466 | -115.26157 | 6093 ft | 228 kts | 25° |
| 2026-05-05 19:55 | 35.92885 | -115.25339 | 5726 ft | 219 kts | 25° |
| 2026-05-05 19:55 | 35.94214 | -115.24589 | 5409 ft | 205 kts | 24° |
| 2026-05-05 19:55 | 35.95479 | -115.23875 | 5110 ft | 193 kts | 24° |
| 2026-05-05 19:56 | 35.96664 | -115.23200 | 4822 ft | 183 kts | 25° |
| 2026-05-05 19:56 | 35.97802 | -115.22551 | 4556 ft | 174 kts | 24° |
| 2026-05-05 19:56 | 35.98868 | -115.21949 | 4342 ft | 168 kts | 24° |
| 2026-05-05 19:56 | 35.99915 | -115.21357 | 4038 ft | 163 kts | 24° |
| 2026-05-05 19:57 | 36.00942 | -115.20773 | 3822 ft | 163 kts | 25° |
| 2026-05-05 19:57 | 36.01980 | -115.20180 | 3560 ft | 164 kts | 25° |
| 2026-05-05 19:57 | 36.03014 | -115.19595 | 3329 ft | 164 kts | 25° |
| 2026-05-05 19:57 | 36.04057 | -115.19003 | 3042 ft | 163 kts | 25° |
| 2026-05-05 19:58 | 36.05085 | -115.18426 | 2818 ft | 164 kts | 25° |
| 2026-05-05 19:58 | 36.06143 | -115.17834 | 2561 ft | 167 kts | 26° |
| 2026-05-05 19:58 | 36.07176 | -115.17241 | 2343 ft | 163 kts | 25° |
| 2026-05-05 19:58 | 36.08196 | -115.16663 | 2172 ft | 153 kts | 27° |
| 2026-05-05 19:59 | 36.09070 | -115.16158 | 2132 ft | 112 kts | 25° |
| 2026-05-05 19:59 | 36.09584 | -115.15862 | 2109 ft | 53 kts | 25° |
| 2026-05-05 19:59 | 36.09788 | -115.15748 | 2102 ft | 25 kts | 25° |
| 2026-05-05 19:59 | 36.09924 | -115.15659 | 2097 ft | 11 kts | 60° |
| 2026-05-05 20:00 | 36.09921 | -115.15564 | 2095 ft | 13 kts | 118° |
| 2026-05-05 20:00 | 36.09870 | -115.15433 | 2091 ft | 20 kts | 115° |
| 2026-05-05 20:00 | 36.09798 | -115.15245 | 2087 ft | 23 kts | 120° |
| 2026-05-05 20:00 | 36.09670 | -115.15241 | 2089 ft | 19 kts | 206° |
| 2026-05-05 20:01 | 36.09557 | -115.15305 | 2093 ft | 16 kts | 205° |
| 2026-05-05 20:01 | 36.09462 | -115.15361 | 2096 ft | 15 kts | 205° |
| 2026-05-05 20:01 | 36.09338 | -115.15431 | 2101 ft | 23 kts | 205° |
| 2026-05-05 20:01 | 36.09167 | -115.15530 | 2109 ft | 31 kts | 206° |
| 2026-05-05 20:02 | 36.08957 | -115.15639 | 2117 ft | 31 kts | 204° |
| 2026-05-05 20:02 | 36.08774 | -115.15749 | 2126 ft | 26 kts | 211° |
| 2026-05-05 20:02 | 36.08613 | -115.15758 | 2131 ft | 25 kts | 156° |
| 2026-05-05 20:02 | 36.08420 | -115.15647 | 2131 ft | 32 kts | 155° |
| 2026-05-05 20:03 | 36.08221 | -115.15533 | 2130 ft | 31 kts | 155° |
| 2026-05-05 20:03 | 36.08024 | -115.15419 | 2133 ft | 30 kts | 155° |
| 2026-05-05 20:03 | 36.07878 | -115.15286 | 2131 ft | 21 kts | 90° |
| 2026-05-05 20:03 | 36.07873 | -115.15069 | 2123 ft | 32 kts | 93° |
| 2026-05-05 20:04 | 36.07854 | -115.14755 | 2112 ft | 36 kts | 96° |
| 2026-05-05 20:04 | 36.07844 | -115.14517 | 2105 ft | 19 kts | 69° |
| 2026-05-05 20:04 | 36.07964 | -115.14487 | 2102 ft | 17 kts | 353° |
| 2026-05-05 20:04 | 36.08025 | -115.14523 | 2102 ft | 6 kts | 278° |
| 2026-05-05 20:05 | 36.08025 | -115.14549 | 2102 ft | 0 kts | 271° |